Time;durP1;ratioP1;P1;durP2;ratioP2;P2;SDS_P1;SDS_P2;PMS_P1;PMS_P2;Temp;Humidity;BMP_temperature;BMP_pressure;BME280_temperature;BME280_humidity;BME280_pressure;Samples;Min_cycle;Max_cycle;Signal;HPM_P1;HPM_P2
2023/10/27 00:02:23;;;;;;;8.40;4.65;;;;;;;12.91;99.07;97940.63;10353897;28;20049;-70
2023/10/27 00:07:25;;;;;;;9.65;4.60;;;;;;;12.81;99.43;97932.13;10351102;28;20132;-70
2023/10/27 00:12:26;;;;;;;5.60;3.05;;;;;;;12.86;99.53;97941.19;10342013;28;20056;-67
2023/10/27 00:17:27;;;;;;;7.47;4.18;;;;;;;12.79;99.49;97931.47;10357571;28;20470;-68
2023/10/27 00:22:31;;;;;;;6.70;3.00;;;;;;;12.87;99.39;97934.00;10352654;28;20068;-67
2023/10/27 00:27:32;;;;;;;11.82;4.22;;;;;;;12.86;98.90;97932.34;10344247;28;20050;-68
2023/10/27 00:32:33;;;;;;;6.93;2.95;;;;;;;12.88;99.17;97930.31;10354545;28;20136;-69
2023/10/27 00:37:36;;;;;;;9.75;3.50;;;;;;;12.81;99.02;97916.94;10352041;28;20049;-68
2023/10/27 00:42:38;;;;;;;9.50;3.35;;;;;;;12.92;98.53;97931.56;10338832;28;20407;-69
2023/10/27 00:47:39;;;;;;;8.48;3.38;;;;;;;12.81;99.05;97919.59;10350148;28;20041;-70
2023/10/27 00:52:41;;;;;;;11.07;3.33;;;;;;;12.71;98.83;97914.59;10336488;28;20051;-70
2023/10/27 00:57:43;;;;;;;9.55;2.92;;;;;;;12.83;99.18;97933.56;10351358;28;20542;-72
2023/10/27 01:02:44;;;;;;;9.25;2.85;;;;;;;12.78;99.05;97940.53;10347633;28;20071;-70
2023/10/27 01:07:46;;;;;;;8.35;3.45;;;;;;;12.73;99.49;97917.91;10348132;28;20053;-66
2023/10/27 01:12:50;;;;;;;11.23;3.45;;;;;;;12.81;99.20;97919.59;10351336;28;20072;-70
2023/10/27 01:17:51;;;;;;;9.97;3.60;;;;;;;12.70;98.87;97896.94;10333094;28;20068;-69
2023/10/27 01:22:52;;;;;;;9.85;3.70;;;;;;;12.84;99.00;97907.72;10348200;28;20295;-68
2023/10/27 01:27:55;;;;;;;5.38;2.92;;;;;;;12.70;98.90;97880.94;10345094;28;20484;-70
2023/10/27 01:32:56;;;;;;;6.55;2.90;;;;;;;12.74;99.05;97892.03;10343176;28;20072;-69
2023/10/27 01:37:57;;;;;;;6.65;3.00;;;;;;;12.76;99.15;97895.34;10330485;28;20057;-66
2023/10/27 01:42:59;;;;;;;8.88;2.88;;;;;;;12.78;99.11;97871.13;10344472;28;20062;-69
2023/10/27 01:48:00;;;;;;;8.05;2.67;;;;;;;12.80;99.23;97863.72;10347863;28;20060;-70
2023/10/27 01:53:02;;;;;;;10.43;3.30;;;;;;;12.79;98.95;97854.06;10348662;28;20144;-69
2023/10/27 01:58:03;;;;;;;8.98;3.38;;;;;;;12.81;98.77;97844.84;10345228;28;20181;-69
2023/10/27 02:03:05;;;;;;;8.07;2.90;;;;;;;12.81;98.58;97854.72;10349410;28;20238;-69
2023/10/27 02:08:07;;;;;;;14.70;3.78;;;;;;;12.84;98.78;97848.97;10345079;28;20460;-69
2023/10/27 02:13:08;;;;;;;6.55;2.80;;;;;;;12.79;99.06;97840.72;10347039;28;20558;-70
2023/10/27 02:18:10;;;;;;;8.73;3.20;;;;;;;12.84;98.58;97860.47;10347723;28;20049;-68
2023/10/27 02:23:11;;;;;;;9.93;2.95;;;;;;;12.83;98.63;97858.00;10336048;28;20686;-68
2023/10/27 02:28:13;;;;;;;8.00;2.65;;;;;;;12.81;98.63;97844.84;10334263;28;20056;-70
2023/10/27 02:33:15;;;;;;;6.55;2.97;;;;;;;12.80;98.19;97847.72;10346822;28;20258;-69
2023/10/27 02:38:16;;;;;;;8.25;4.65;;;;;;;12.76;98.47;97831.28;10347136;28;20061;-68
2023/10/27 02:43:17;;;;;;;8.10;4.28;;;;;;;12.72;98.27;97814.00;10349314;28;20042;-69
2023/10/27 02:48:19;;;;;;;7.43;3.30;;;;;;;12.82;98.63;97829.66;10345100;28;20233;-69
2023/10/27 02:53:21;;;;;;;8.88;3.13;;;;;;;12.64;97.80;97823.00;10345916;28;20075;-69
2023/10/27 02:58:22;;;;;;;8.45;3.83;;;;;;;12.70;98.42;97832.88;10350260;28;20376;-66
2023/10/27 03:03:24;;;;;;;10.65;4.05;;;;;;;12.54;98.23;97801.97;10346214;28;20058;-69
2023/10/27 03:08:26;;;;;;;10.38;3.47;;;;;;;12.61;98.21;97807.38;10348065;28;20038;-68
2023/10/27 03:13:27;;;;;;;7.13;3.00;;;;;;;12.65;97.96;97829.97;10353498;28;20439;-69
2023/10/27 03:18:29;;;;;;;7.28;3.10;;;;;;;12.62;97.89;97840.22;10342067;28;20468;-67
2023/10/27 03:23:31;;;;;;;10.15;3.70;;;;;;;12.60;98.12;97829.72;10353677;28;20045;-69
2023/10/27 03:28:32;;;;;;;8.30;3.72;;;;;;;12.61;98.52;97839.41;10337474;28;20070;-71
2023/10/27 03:33:34;;;;;;;9.23;3.10;;;;;;;12.60;98.39;97843.06;10358804;28;20365;-66
2023/10/27 03:38:35;;;;;;;7.22;3.05;;;;;;;12.51;98.42;97836.25;10340252;28;20252;-70
2023/10/27 03:43:37;;;;;;;7.28;2.42;;;;;;;12.55;99.17;97832.19;10353188;28;20080;-71
2023/10/27 03:48:39;;;;;;;8.80;3.30;;;;;;;12.54;98.76;97834.00;10343525;28;20045;-68
2023/10/27 03:53:40;;;;;;;9.88;2.95;;;;;;;12.62;98.63;97841.03;10357052;28;20046;-68
2023/10/27 03:58:41;;;;;;;6.80;2.47;;;;;;;12.63;99.32;97826.69;10352737;28;20136;-70
2023/10/27 04:03:47;;;;;;;5.05;2.58;;;;;;;12.72;99.05;97836.16;10356682;28;20828;-70
2023/10/27 04:08:48;;;;;;;6.97;3.67;;;;;;;12.70;98.60;97826.69;10352568;28;20593;-68
2023/10/27 04:13:49;;;;;;;11.85;3.80;;;;;;;12.65;98.84;97819.28;10353117;28;20069;-69
2023/10/27 04:18:51;;;;;;;9.27;4.20;;;;;;;12.69;98.79;97814.41;10354198;28;20057;-69
2023/10/27 04:23:52;;;;;;;9.05;4.50;;;;;;;12.53;98.86;97792.31;10339179;28;20068;-69
2023/10/27 04:28:54;;;;;;;9.07;3.35;;;;;;;12.72;99.20;97820.16;10356417;28;20095;-70
2023/10/27 04:33:56;;;;;;;11.70;4.70;;;;;;;12.69;98.99;97815.22;10339652;28;20140;-68
2023/10/27 04:38:57;;;;;;;15.50;5.47;;;;;;;12.47;99.52;97805.63;10353792;28;20065;-69
2023/10/27 04:43:59;;;;;;;16.15;5.00;;;;;;;12.60;100.00;97820.91;10352592;28;20042;-69
2023/10/27 04:49:00;;;;;;;10.10;4.75;;;;;;;12.49;100.00;97807.09;10337400;28;20129;-67
2023/10/27 04:54:03;;;;;;;12.85;4.82;;;;;;;12.59;100.00;97817.41;10353202;28;20547;-69
2023/10/27 04:59:04;;;;;;;8.52;5.05;;;;;;;12.41;100.00;97785.88;10345250;28;20212;-70
2023/10/27 05:04:06;;;;;;;9.57;5.38;;;;;;;12.65;100.00;97797.94;10333244;28;20129;-70
2023/10/27 05:09:07;;;;;;;13.65;5.68;;;;;;;12.73;100.00;97808.47;10345831;28;20598;-70
2023/10/27 05:14:08;;;;;;;12.20;5.55;;;;;;;12.66;100.00;97799.59;10343550;28;20476;-69
2023/10/27 05:19:12;;;;;;;9.23;5.63;;;;;;;12.58;100.00;97791.75;10346085;28;20107;-70
2023/10/27 05:24:13;;;;;;;8.80;4.87;;;;;;;12.69;100.00;97795.72;10323522;28;20073;-70
2023/10/27 05:29:15;;;;;;;6.45;4.53;;;;;;;12.62;100.00;97784.97;10351581;28;20160;-72
2023/10/27 05:34:16;;;;;;;8.75;4.82;;;;;;;12.57;100.00;97776.75;10345962;28;20480;-70
2023/10/27 05:39:19;;;;;;;6.78;4.82;;;;;;;12.54;100.00;97769.16;10349067;28;20369;-71
2023/10/27 05:44:20;;;;;;;7.47;5.05;;;;;;;12.62;100.00;97792.19;10326784;28;20130;-72
2023/10/27 05:49:22;;;;;;;7.10;5.00;;;;;;;12.60;100.00;97783.56;10336852;28;20057;-71
2023/10/27 05:54:24;;;;;;;7.50;5.72;;;;;;;12.50;100.00;97774.03;10327189;28;20064;-72
2023/10/27 05:59:25;;;;;;;7.05;5.05;;;;;;;12.51;100.00;97774.88;10350650;28;20049;-71
2023/10/27 06:04:26;;;;;;;8.90;5.75;;;;;;;12.66;100.00;97806.78;10328233;28;20046;-71
2023/10/27 06:09:29;;;;;;;6.65;5.43;;;;;;;12.54;100.00;97801.97;10354512;28;20061;-71
2023/10/27 06:14:31;;;;;;;9.82;5.90;;;;;;;12.58;100.00;97825.59;10345562;28;20967;-71
2023/10/27 06:19:32;;;;;;;7.50;5.57;;;;;;;12.43;100.00;97799.88;10354838;28;21139;-74
2023/10/27 06:24:33;;;;;;;6.50;4.90;;;;;;;12.54;100.00;97811.84;10350858;28;20412;-73
2023/10/27 06:29:35;;;;;;;6.65;5.30;;;;;;;12.57;100.00;97800.78;10352036;28;20595;-75
2023/10/27 06:34:36;;;;;;;8.00;5.63;;;;;;;12.48;100.00;97804.63;10346186;28;20057;-74
2023/10/27 06:39:38;;;;;;;7.07;5.20;;;;;;;12.48;100.00;97801.97;10345727;28;20056;-71
2023/10/27 06:44:39;;;;;;;6.75;5.03;;;;;;;12.48;100.00;97800.09;10328559;28;20076;-74
2023/10/27 06:49:41;;;;;;;6.45;5.57;;;;;;;12.61;100.00;97817.22;10332265;28;20056;-75
2023/10/27 06:54:43;;;;;;;5.60;4.93;;;;;;;12.53;100.00;97810.19;10347201;28;20064;-74
2023/10/27 06:59:44;;;;;;;6.10;4.57;;;;;;;12.63;100.00;97813.34;10343722;28;20053;-72
2023/10/27 07:04:46;;;;;;;6.22;5.20;;;;;;;12.60;100.00;97812.91;10346712;28;20060;-73
2023/10/27 07:09:49;;;;;;;5.55;4.80;;;;;;;12.44;100.00;97817.50;10348913;28;20150;-72
2023/10/27 07:14:50;;;;;;;5.10;4.22;;;;;;;12.39;100.00;97809.28;10349384;28;20104;-73
2023/10/27 07:19:51;;;;;;;5.43;4.72;;;;;;;12.45;100.00;97818.34;10343294;28;20135;-73
2023/10/27 07:24:53;;;;;;;6.00;5.18;;;;;;;12.48;100.00;97828.63;10331205;28;20060;-75
2023/10/27 07:29:54;;;;;;;5.63;5.05;;;;;;;12.43;100.00;97821.22;10343229;28;20076;-74
2023/10/27 07:34:56;;;;;;;5.07;4.57;;;;;;;12.49;100.00;97814.25;10315164;28;20140;-73
2023/10/27 07:39:57;;;;;;;5.53;4.78;;;;;;;12.45;100.00;97802.34;10327269;28;20681;-73
2023/10/27 07:44:59;;;;;;;5.85;4.38;;;;;;;12.46;100.00;97798.63;10341757;28;20076;-73
2023/10/27 07:50:02;;;;;;;5.25;4.15;;;;;;;12.63;100.00;97809.84;10330298;28;20143;-72
2023/10/27 07:55:06;;;;;;;4.88;3.78;;;;;;;12.59;100.00;97809.41;10354440;28;20409;-71
2023/10/27 08:00:11;;;;;;;4.90;2.80;;;;;;;12.55;100.00;97808.97;10354141;28;20037;-72
2023/10/27 08:05:12;;;;;;;2.70;2.22;;;;;;;12.54;100.00;97814.50;10337845;28;20064;-73
2023/10/27 08:10:14;;;;;;;3.08;2.20;;;;;;;12.53;100.00;97820.84;10338723;28;20435;-72
2023/10/27 08:15:16;;;;;;;3.55;1.75;;;;;;;12.42;100.00;97808.88;10350534;28;20053;-74
2023/10/27 08:20:17;;;;;;;2.33;2.08;;;;;;;12.59;100.00;97825.41;10351586;28;20053;-72
2023/10/27 08:25:22;;;;;;;3.17;1.63;;;;;;;12.61;100.00;97834.06;10338927;28;20130;-72
2023/10/27 08:30:24;;;;;;;3.13;1.95;;;;;;;12.59;100.00;97828.06;10336320;28;20057;-70
2023/10/27 08:35:25;;;;;;;3.28;1.98;;;;;;;12.65;100.00;97845.97;10349901;28;20427;-71
2023/10/27 08:40:31;;;;;;;3.63;2.20;;;;;;;12.69;100.00;97857.09;10349366;28;20332;-71
2023/10/27 08:45:34;;;;;;;2.72;1.85;;;;;;;12.71;100.00;97847.03;10351751;28;20584;-70
2023/10/27 08:50:38;;;;;;;3.80;1.80;;;;;;;12.69;100.00;97857.91;10334263;28;20112;-70
2023/10/27 08:55:40;;;;;;;3.30;2.00;;;;;;;12.64;100.00;97865.69;10348849;28;20053;-70
2023/10/27 09:00:42;;;;;;;5.57;1.83;;;;;;;12.63;100.00;97864.03;10334146;28;20072;-69
2023/10/27 09:05:44;;;;;;;2.85;1.10;;;;;;;12.79;100.00;97883.44;10329652;28;20587;-69
2023/10/27 09:10:46;;;;;;;4.70;1.90;;;;;;;12.79;100.00;97910.13;10347010;28;20053;-69
2023/10/27 09:15:51;;;;;;;3.13;1.70;;;;;;;12.73;100.00;97895.75;10327131;28;20064;-71
2023/10/27 09:20:52;;;;;;;2.83;1.92;;;;;;;12.85;100.00;97928.88;10330905;28;20468;-68
2023/10/27 09:25:56;;;;;;;2.80;1.67;;;;;;;12.80;100.00;97930.47;10333418;28;20049;-71
2023/10/27 09:30:58;;;;;;;3.60;1.55;;;;;;;12.75;100.00;97927.56;10332682;28;20053;-70
2023/10/27 09:36:04;;;;;;;3.47;1.60;;;;;;;12.72;100.00;97926.91;10330865;28;20048;-71
2023/10/27 09:41:07;;;;;;;1.88;1.42;;;;;;;12.79;100.00;97948.34;10356671;28;20072;-70
2023/10/27 09:46:11;;;;;;;4.07;1.73;;;;;;;12.71;100.00;97957.28;10351821;28;20089;-70
2023/10/27 09:51:16;;;;;;;;;;;;;;;12.78;100.00;97968.03;10371281;28;20244;-70
2023/10/27 09:56:18;;;;;;;3.58;1.45;;;;;;;12.77;100.00;97970.91;10358866;28;19935;-69
2023/10/27 10:01:20;;;;;;;2.95;1.30;;;;;;;12.58;100.00;97954.53;10362187;28;20552;-69
2023/10/27 10:06:23;;;;;;;2.13;1.25;;;;;;;12.75;100.00;97972.94;10358403;28;20076;-70
2023/10/27 10:11:36;;;;;;;3.33;1.70;;;;;;;12.53;100.00;97956.94;10348597;28;20072;-73
2023/10/27 10:16:44;;;;;;;1.50;1.13;;;;;;;12.58;100.00;97978.56;10342861;28;20685;-71
2023/10/27 10:21:45;;;;;;;1.85;1.58;;;;;;;12.70;100.00;98003.72;10359869;28;20172;-72
2023/10/27 10:27:05;;;;;;;1.75;1.30;;;;;;;12.70;100.00;98003.72;10345156;28;20057;-74
2023/10/27 10:32:36;;;;;;;1.88;1.25;;;;;;;13.05;100.00;98005.63;10361295;28;20282;-74
2023/10/27 10:37:38;;;;;;;1.42;0.85;;;;;;;13.45;100.00;97997.91;10303503;28;20419;-73
2023/10/27 10:43:19;;;;;;;1.50;0.95;;;;;;;13.86;100.00;98012.28;10358433;28;20140;-73
2023/10/27 10:48:22;;;;;;;3.08;1.40;;;;;;;14.83;100.00;98005.72;10355309;28;20053;-74
2023/10/27 10:53:26;;;;;;;2.08;0.90;;;;;;;15.19;96.74;98009.84;10360044;28;20085;-73
2023/10/27 10:58:30;;;;;;;1.17;0.80;;;;;;;14.84;94.47;98001.19;10357571;28;20053;-75
2023/10/27 11:03:33;;;;;;;0.80;0.50;;;;;;;14.53;93.38;98012.47;10344397;28;20378;-75
2023/10/27 11:08:37;;;;;;;1.55;0.50;;;;;;;14.31;93.66;98010.78;10357221;28;20054;-74
2023/10/27 11:13:44;;;;;;;1.60;0.73;;;;;;;14.05;94.22;97990.13;10338139;28;20053;-72
2023/10/27 11:18:48;;;;;;;0.85;0.57;;;;;;;14.03;93.10;98008.22;10295664;28;1089554;-74
2023/10/27 11:23:51;;;;;;;1.38;0.65;;;;;;;13.97;92.81;98015.19;10340594;28;20160;-73
2023/10/27 11:28:58;;;;;;;2.05;0.60;;;;;;;13.87;93.57;98004.06;10356118;28;20276;-72
2023/10/27 11:34:07;;;;;;;1.05;0.60;;;;;;;14.08;93.80;97995.09;10365325;28;20041;-73
2023/10/27 11:39:13;;;;;;;1.17;0.50;;;;;;;14.24;90.25;97980.50;10392695;28;20061;-72
2023/10/27 11:44:18;;;;;;;2.25;0.50;;;;;;;14.33;91.22;98010.56;10360684;28;20368;-72
2023/10/27 11:49:20;;;;;;;2.80;0.70;;;;;;;14.21;90.00;97993.47;10350620;28;20073;-74
2023/10/27 11:54:23;;;;;;;5.28;1.42;;;;;;;14.22;91.39;98000.47;10360307;28;20068;-73
2023/10/27 11:59:29;;;;;;;1.00;0.60;;;;;;;14.18;92.04;97999.22;10362658;28;20053;-74
2023/10/27 12:04:31;;;;;;;1.23;0.50;;;;;;;14.39;89.09;98012.44;10359697;28;20053;-74
2023/10/27 12:09:32;;;;;;;2.08;0.50;;;;;;;15.63;84.80;97990.56;10381445;28;20076;-72
2023/10/27 12:14:34;;;;;;;1.75;0.50;;;;;;;17.28;78.42;98000.50;10361791;28;20050;-73
2023/10/27 12:19:35;;;;;;;1.70;0.50;;;;;;;17.82;71.81;98008.00;10346857;28;20233;-72
2023/10/27 12:24:37;;;;;;;3.22;1.20;;;;;;;17.92;71.36;98016.38;10355060;28;20562;-72
2023/10/27 12:29:39;;;;;;;1.77;0.50;;;;;;;18.53;70.07;98011.03;10345560;28;20053;-71
2023/10/27 12:34:40;;;;;;;1.35;0.65;;;;;;;17.76;67.82;98014.25;10346911;28;20466;-71
2023/10/27 12:39:42;;;;;;;2.15;0.40;;;;;;;18.81;63.16;98006.84;10362109;28;20046;-72
2023/10/27 12:44:45;;;;;;;2.25;0.50;;;;;;;19.93;61.02;97995.13;10352920;28;20049;-73
2023/10/27 12:49:46;;;;;;;3.28;0.50;;;;;;;20.75;56.27;98003.94;10358976;28;20574;-73
2023/10/27 12:54:49;;;;;;;2.55;0.60;;;;;;;20.77;58.59;98020.75;10346555;28;20058;-72
2023/10/27 12:59:51;;;;;;;2.30;0.50;;;;;;;20.95;53.76;98025.09;10338883;28;20212;-73
2023/10/27 13:04:56;;;;;;;5.03;0.40;;;;;;;19.90;57.58;98027.19;10358292;28;20462;-74
2023/10/27 13:09:58;;;;;;;4.38;0.85;;;;;;;18.39;61.11;98029.25;10343221;28;20140;-71
2023/10/27 13:15:00;;;;;;;2.97;1.23;;;;;;;17.19;64.36;98025.19;10349431;28;20054;-71
2023/10/27 13:20:02;;;;;;;2.00;0.43;;;;;;;16.79;70.58;98037.06;10354997;28;20065;-71
2023/10/27 13:25:05;;;;;;;2.40;0.50;;;;;;;16.85;70.46;98030.00;10330646;28;20133;-70
2023/10/27 13:30:07;;;;;;;3.60;0.93;;;;;;;18.02;65.81;98000.50;10354536;28;20697;-71
2023/10/27 13:35:11;;;;;;;1.85;0.90;;;;;;;17.47;67.43;98000.50;10341275;28;20123;-72
2023/10/27 13:40:14;;;;;;;3.80;1.17;;;;;;;17.16;69.05;98037.22;10357070;28;20058;-72
2023/10/27 13:45:16;;;;;;;4.88;0.93;;;;;;;16.98;69.49;98032.59;10353929;28;20064;-70
2023/10/27 13:50:18;;;;;;;7.47;2.65;;;;;;;16.43;70.86;98049.25;10352161;28;20057;-68
2023/10/27 13:55:19;;;;;;;3.92;0.70;;;;;;;16.04;73.09;98046.56;10351140;28;20056;-71
2023/10/27 14:00:26;;;;;;;3.45;1.10;;;;;;;15.90;73.29;98064.56;10366285;28;20080;-70
2023/10/27 14:05:27;;;;;;;2.92;1.20;;;;;;;15.66;75.81;98060.69;10353097;28;20507;-68
2023/10/27 14:10:29;;;;;;;3.10;1.10;;;;;;;15.45;77.47;98048.34;10367785;28;20276;-70
2023/10/27 14:15:32;;;;;;;4.00;1.13;;;;;;;15.44;78.69;98067.31;10361386;28;20053;-69
2023/10/27 14:20:34;;;;;;;2.22;0.80;;;;;;;15.31;79.18;98073.50;10334739;28;20460;-69
2023/10/27 14:25:40;;;;;;;3.55;0.85;;;;;;;15.36;80.13;98071.06;10355620;28;20133;-70
2023/10/27 14:37:04;;;;;;;4.63;0.88;;;;;;;16.86;75.56;98061.16;10352506;28;20045;-74
2023/10/27 14:42:07;;;;;;;1.50;0.85;;;;;;;16.36;75.79;98065.41;10350135;28;20494;-74
2023/10/27 14:47:09;;;;;;;3.60;1.27;;;;;;;16.57;75.54;98061.59;10359371;28;20057;-73
2023/10/27 14:58:33;;;;;;;2.13;0.57;;;;;;;16.10;72.89;98084.31;10295935;28;20167;-53
2023/10/27 15:03:37;;;;;;;1.35;0.60;;;;;;;15.78;74.47;98078.81;10307946;28;20549;-54
2023/10/27 15:08:39;;;;;;;;;;;;;;;15.59;75.37;98096.59;10290997;28;20187;-56
2023/10/27 15:13:41;;;;;;;1.85;0.45;;;;;;;15.45;75.09;98099.28;10292306;28;19925;-55
2023/10/27 15:18:42;;;;;;;1.73;0.70;;;;;;;15.25;75.36;98095.78;10294142;28;20085;-55
2023/10/27 15:23:48;;;;;;;1.80;0.70;;;;;;;15.34;76.55;98105.25;10291692;28;20049;-57
2023/10/27 15:28:50;;;;;;;2.90;0.75;;;;;;;15.26;75.19;98105.47;10284651;28;20096;-54
2023/10/27 15:33:52;;;;;;;3.30;0.60;;;;;;;15.18;76.98;98099.28;10287662;28;20057;-55
2023/10/27 15:38:57;;;;;;;2.20;0.65;;;;;;;15.23;76.08;98117.44;10308068;28;20054;-55
2023/10/27 15:44:00;;;;;;;1.35;0.65;;;;;;;15.20;75.71;98115.97;10273231;28;21009;-55
2023/10/27 15:49:02;;;;;;;3.42;0.80;;;;;;;15.11;75.60;98125.25;10285724;28;20058;-54
2023/10/27 15:54:04;;;;;;;3.10;1.10;;;;;;;15.09;76.26;98118.47;10290836;28;20050;-54
2023/10/27 15:59:08;;;;;;;2.50;1.48;;;;;;;15.07;77.50;98115.97;10286479;28;20053;-55
2023/10/27 16:04:10;;;;;;;4.03;1.08;;;;;;;15.01;77.60;98124.81;10289741;28;20054;-55
2023/10/27 16:09:11;;;;;;;2.47;1.15;;;;;;;14.95;77.87;98133.69;10282221;28;20054;-55
2023/10/27 16:14:33;;;;;;;5.75;1.23;;;;;;;14.72;78.42;98116.13;10289343;28;20053;-55
2023/10/27 16:19:37;;;;;;;2.70;0.75;;;;;;;14.72;78.08;98123.34;10292245;28;20581;-59
2023/10/27 16:24:39;;;;;;;2.63;1.67;;;;;;;14.63;78.25;98136.09;10286326;28;20046;-55
2023/10/27 16:29:42;;;;;;;2.70;0.80;;;;;;;14.47;78.73;98138.06;10301655;28;20069;-55
2023/10/27 16:34:44;;;;;;;3.65;1.05;;;;;;;14.55;79.66;98158.47;10298054;28;20054;-55
2023/10/27 16:39:46;;;;;;;2.67;1.02;;;;;;;14.46;79.75;98144.44;10292207;28;20046;-54
2023/10/27 16:44:48;;;;;;;4.00;1.27;;;;;;;14.41;80.27;98148.72;10290843;28;20667;-54
2023/10/27 16:49:50;;;;;;;3.20;1.15;;;;;;;14.38;80.19;98151.81;10288777;28;20065;-56
2023/10/27 16:54:51;;;;;;;1.67;0.70;;;;;;;14.28;80.32;98160.22;10281620;28;20046;-55
2023/10/27 16:59:53;;;;;;;2.53;0.90;;;;;;;14.09;80.71;98159.09;10271584;28;20049;-56
2023/10/27 17:04:55;;;;;;;2.20;0.98;;;;;;;14.02;81.62;98169.75;10287255;28;21085;-54
2023/10/27 17:10:03;;;;;;;4.63;1.70;;;;;;;13.90;82.31;98179.31;10303757;28;20057;-55
2023/10/27 17:15:05;;;;;;;3.45;1.45;;;;;;;13.79;82.74;98189.53;10300778;28;20144;-56
2023/10/27 17:20:09;;;;;;;5.97;2.10;;;;;;;13.85;83.00;98192.47;10297639;28;20119;-55
2023/10/27 17:25:18;;;;;;;3.78;1.60;;;;;;;13.75;83.01;98207.00;10298981;28;20204;-55
2023/10/27 17:30:20;;;;;;;3.00;1.77;;;;;;;13.71;83.49;98216.44;10295801;28;20064;-55
2023/10/27 17:35:22;;;;;;;4.93;1.73;;;;;;;13.65;83.91;98211.88;10304936;28;20061;-57
2023/10/27 17:40:25;;;;;;;1.55;1.20;;;;;;;13.68;84.27;98219.50;10294074;28;20065;-55
2023/10/27 17:45:26;;;;;;;3.38;1.48;;;;;;;13.73;84.05;98233.09;10306204;28;20061;-56
2023/10/27 17:50:28;;;;;;;2.97;0.80;;;;;;;13.68;84.53;98232.84;10296738;28;20077;-55
2023/10/27 17:55:30;;;;;;;3.08;1.08;;;;;;;13.68;84.45;98235.53;10298609;28;20053;-54
2023/10/27 18:00:31;;;;;;;3.75;1.40;;;;;;;13.67;84.95;98243.75;10281217;28;20066;-54
2023/10/27 18:05:33;;;;;;;4.85;1.40;;;;;;;13.68;85.16;98248.09;10303294;28;20109;-53
2023/10/27 18:10:38;;;;;;;3.45;1.55;;;;;;;13.58;85.53;98235.84;10280874;28;20128;-55
2023/10/27 18:15:40;;;;;;;3.00;1.70;;;;;;;13.60;86.21;98243.66;10302414;28;20322;-55
2023/10/27 18:20:42;;;;;;;3.83;1.95;;;;;;;13.54;86.69;98245.28;10306599;28;20642;-54
2023/10/27 18:25:46;;;;;;;3.85;2.05;;;;;;;13.55;86.86;98251.44;10296591;28;20076;-54
2023/10/27 18:30:48;;;;;;;3.10;1.40;;;;;;;13.48;87.28;98255.91;10286585;28;20053;-55
2023/10/27 18:35:50;;;;;;;3.25;1.70;;;;;;;13.48;87.62;98253.22;10284744;28;20581;-55
2023/10/27 18:40:53;;;;;;;5.60;1.90;;;;;;;13.39;88.53;98253.38;10279804;28;20061;-54
2023/10/27 18:45:56;;;;;;;7.10;2.00;;;;;;;13.42;88.31;98260.16;10288554;28;20946;-54
2023/10/27 18:51:00;;;;;;;5.40;2.00;;;;;;;13.31;87.98;98250.78;10304297;28;20833;-54
2023/10/27 18:56:06;;;;;;;4.20;2.05;;;;;;;13.33;88.39;98259.44;10294071;28;20058;-54
2023/10/27 19:01:08;;;;;;;4.80;1.70;;;;;;;13.33;88.66;98259.44;10290867;28;20758;-54
2023/10/27 19:06:12;;;;;;;4.32;2.22;;;;;;;13.31;88.46;98261.47;10293805;28;20057;-55
2023/10/27 19:11:17;;;;;;;3.92;2.42;;;;;;;13.33;88.69;98263.94;10295488;28;20068;-54
2023/10/27 19:16:19;;;;;;;3.73;1.90;;;;;;;13.28;88.72;98259.19;10289208;28;20339;-53
2023/10/27 19:21:21;;;;;;;6.65;2.00;;;;;;;13.27;89.07;98270.91;10301716;28;20085;-54
2023/10/27 19:26:25;;;;;;;7.53;2.03;;;;;;;13.32;88.88;98275.66;10292273;28;21469;-54
2023/10/27 19:31:27;;;;;;;3.80;2.00;;;;;;;13.28;88.62;98277.88;10295108;28;20614;-54
2023/10/27 19:36:29;;;;;;;7.60;3.15;;;;;;;13.27;89.09;98287.75;10282585;28;20061;-55
2023/10/27 19:41:31;;;;;;;6.82;4.18;;;;;;;13.27;89.15;98286.94;10296571;28;20054;-55
2023/10/27 19:46:33;;;;;;;8.30;3.00;;;;;;;13.30;89.05;98291.03;10303497;28;20245;-54
2023/10/27 19:51:35;;;;;;;4.75;2.33;;;;;;;13.27;89.17;98281.59;10290417;28;20053;-55
2023/10/27 19:56:37;;;;;;;7.20;2.40;;;;;;;13.25;89.37;98294.28;10296975;28;20085;-54
2023/10/27 20:01:38;;;;;;;3.78;2.05;;;;;;;13.13;89.74;98295.78;10296916;28;20067;-54
2023/10/27 20:06:40;;;;;;;3.80;1.98;;;;;;;13.17;90.33;98305.09;10304092;28;20952;-55
2023/10/27 20:11:42;;;;;;;3.40;1.52;;;;;;;13.22;90.57;98310.69;10300333;28;20053;-55
2023/10/27 20:16:44;;;;;;;6.63;1.90;;;;;;;13.11;90.68;98300.50;10294388;28;20347;-54
2023/10/27 20:21:46;;;;;;;5.10;1.67;;;;;;;13.16;90.60;98311.44;10300810;28;21091;-54
2023/10/27 20:26:47;;;;;;;3.05;1.85;;;;;;;13.18;90.95;98315.59;10280482;28;20065;-54
2023/10/27 20:31:49;;;;;;;5.45;2.42;;;;;;;13.18;90.74;98314.75;10295535;28;20054;-54
2023/10/27 20:36:50;;;;;;;6.82;2.40;;;;;;;13.11;90.97;98309.34;10303902;28;21334;-55
2023/10/27 20:41:53;;;;;;;4.53;1.83;;;;;;;13.01;91.35;98303.47;10300030;28;20058;-54
2023/10/27 20:46:55;;;;;;;6.85;2.03;;;;;;;12.98;91.82;98310.00;10285680;28;20447;-54
2023/10/27 20:51:57;;;;;;;3.38;1.80;;;;;;;12.90;92.47;98304.78;10300819;28;20058;-54
2023/10/27 20:56:59;;;;;;;5.53;1.80;;;;;;;12.85;92.87;98299.16;10305465;28;20050;-54
2023/10/27 21:02:00;;;;;;;4.90;2.53;;;;;;;12.86;93.19;98303.47;10308203;28;20766;-54
2023/10/27 21:07:02;;;;;;;4.90;2.10;;;;;;;12.81;93.23;98309.38;10308988;28;20707;-53
2023/10/27 21:12:04;;;;;;;4.82;1.70;;;;;;;12.78;93.63;98309.75;10295279;28;20583;-54
2023/10/27 21:17:05;;;;;;;4.93;2.10;;;;;;;12.73;93.87;98312.16;10308803;28;20695;-53
2023/10/27 21:22:07;;;;;;;4.03;1.80;;;;;;;12.68;94.20;98311.88;10300504;28;20054;-57
2023/10/27 21:27:08;;;;;;;4.13;2.20;;;;;;;12.70;94.59;98318.69;10295791;28;20066;-55
2023/10/27 21:32:10;;;;;;;6.95;2.85;;;;;;;12.69;94.79;98316.22;10310429;28;20475;-54
2023/10/27 21:37:11;;;;;;;4.80;2.20;;;;;;;12.69;94.80;98317.03;10302470;28;20128;-54
2023/10/27 21:42:13;;;;;;;6.40;2.75;;;;;;;12.72;95.02;98322.00;10310303;28;20062;-54
2023/10/27 21:47:18;;;;;;;5.38;2.63;;;;;;;12.77;94.65;98333.97;10298281;28;20051;-54
2023/10/27 21:52:19;;;;;;;4.40;2.60;;;;;;;12.80;94.68;98333.59;10293706;28;20070;-54
2023/10/27 21:57:22;;;;;;;3.88;2.63;;;;;;;12.72;95.17;98332.66;10314964;28;20097;-53
2023/10/27 22:02:23;;;;;;;3.45;2.28;;;;;;;12.82;94.99;98342.25;10305302;28;20477;-56
2023/10/27 22:07:25;;;;;;;6.32;2.78;;;;;;;12.86;95.17;98346.19;10290182;28;20066;-53
2023/10/27 22:12:28;;;;;;;6.07;2.92;;;;;;;12.89;94.74;98337.81;10302766;28;20053;-54
2023/10/27 22:17:29;;;;;;;5.25;2.40;;;;;;;12.86;94.68;98340.88;10274950;28;20176;-53
2023/10/27 22:22:33;;;;;;;3.70;2.20;;;;;;;12.90;94.61;98350.16;10303681;28;20140;-54
2023/10/27 22:27:35;;;;;;;3.80;2.30;;;;;;;12.87;95.43;98355.88;10288722;28;20164;-54
2023/10/27 22:32:37;;;;;;;5.80;2.10;;;;;;;12.83;96.29;98347.38;10304838;28;20054;-55
2023/10/27 22:37:39;;;;;;;5.25;2.00;;;;;;;12.79;97.27;98350.63;10302973;28;20052;-54
2023/10/27 22:42:43;;;;;;;6.20;1.95;;;;;;;12.77;97.80;98345.47;10298640;28;20210;-53
2023/10/27 22:47:47;;;;;;;2.83;1.55;;;;;;;12.69;98.47;98335.72;10305800;28;20872;-54
2023/10/27 22:52:51;;;;;;;4.43;1.60;;;;;;;12.67;99.51;98336.91;10286023;28;20122;-53
2023/10/27 22:57:54;;;;;;;4.13;1.88;;;;;;;12.68;100.00;98351.91;10298648;28;20042;-54
2023/10/27 23:02:57;;;;;;;4.93;2.13;;;;;;;12.72;99.89;98348.69;10304176;28;20073;-54
2023/10/27 23:07:59;;;;;;;3.55;1.40;;;;;;;12.69;100.00;98343.72;10302777;28;20050;-55
2023/10/27 23:13:04;;;;;;;7.47;2.42;;;;;;;12.68;99.80;98342.06;10303571;28;20049;-54
2023/10/27 23:18:06;;;;;;;3.63;1.30;;;;;;;12.76;99.76;98351.00;10306127;28;20660;-54
2023/10/27 23:23:09;;;;;;;4.45;1.50;;;;;;;12.72;99.74;98359.38;10307372;28;20045;-54
2023/10/27 23:28:11;;;;;;;2.70;1.15;;;;;;;12.72;99.38;98354.03;10314521;28;20072;-55
2023/10/27 23:33:13;;;;;;;3.63;1.45;;;;;;;12.71;99.32;98354.22;10300226;28;20185;-54